Terminal Aerodrome Forecast
Issued by NWS Sterling, VA

Current Version | Previous Version | Text Only | Print | Product List | Glossary Off
Versions: 1 2 3 4 5 6 7 8 9 10 11 12 13 14 15 16 17

710
FTUS41 KLWX 141725
TAFMRB
TAF
KMRB 141725Z 1418/1518 31011G19KT P6SM SCT050
     FM142300 32008KT P6SM BKN140
     FM150300 34004KT P6SM BKN150
     FM151500 17004KT P6SM OVC045=

USA.gov is the U.S. government's official web portal to all federal, state and local government web resources and services.